Station Historical Data
Daily Summary for May 18, 2017 Units:  Both    English   Metric
« Previous Day
Next Day »
Daily Weekly Monthly Yearly Custom
  High: Low: Average:
Temperature: 83.2 °F /  28.4 °C 69.4 °F /  20.8 °C 75.8 °F /  24.3 °C
Dew Point: 65.4 °F /  18.6 °C 56.2 °F /  13.4 °C 60 °F /  15.6 °C
Humidity: 66% 52% 58%
Wind Speed: 18.0mph /  29km/h - 6.8mph /  10.9km/h
Wind Gust: 28.0mph /  45.1km/h - -
Wind- - SW
Pressure: 29.82 in /  1009.7 hPa 29.72 in /  1006.3 hPa -
Precipitation: 0.00 in /  0 mm    
Historical Graphs
 
 
Tabular Data for May 18, 2017
Time Temperature Dew Point Pressure Wind Wind Speed Wind Gust Humidity Rainfall Rate (Hourly)
00:00 74.8 °F /  23.8 °C 59.5 °F /  15.3 °C 29.79in /  1008.7hPa SSW 5.0mph /  8km/h 10.0mph /  16.1km/h 59% 0.00in /  0mm
00:05 74.9 °F /  23.8 °C 59.6 °F /  15.3 °C 29.79in /  1008.7hPa SSW 3.0mph /  4.8km/h 9.0mph /  14.5km/h 59% 0.00in /  0mm
00:10 74.9 °F /  23.8 °C 59.6 °F /  15.3 °C 29.79in /  1008.7hPa SW 2.0mph /  3.2km/h 7.0mph /  11.3km/h 59% 0.00in /  0mm
00:15 74.9 °F /  23.8 °C 59.6 °F /  15.3 °C 29.79in /  1008.7hPa SSW 4.0mph /  6.4km/h 8.0mph /  12.9km/h 59% 0.00in /  0mm
00:20 74.8 °F /  23.8 °C 59.5 °F /  15.3 °C 29.79in /  1008.7hPa SSW 4.0mph /  6.4km/h 11.0mph /  17.7km/h 59% 0.00in /  0mm
00:25 75.0 °F /  23.9 °C 59.7 °F /  15.4 °C 29.79in /  1008.7hPa SSW 6.0mph /  9.7km/h 10.0mph /  16.1km/h 59% 0.00in /  0mm
00:30 75.0 °F /  23.9 °C 59.7 °F /  15.4 °C 29.79in /  1008.7hPa SSW 3.0mph /  4.8km/h 10.0mph /  16.1km/h 59% 0.00in /  0mm
00:35 74.8 °F /  23.8 °C 59.5 °F /  15.3 °C 29.78in /  1008.4hPa SW 3.0mph /  4.8km/h 8.0mph /  12.9km/h 59% 0.00in /  0mm
00:40 74.7 °F /  23.7 °C 59.4 °F /  15.2 °C 29.78in /  1008.4hPa SSW 3.0mph /  4.8km/h 10.0mph /  16.1km/h 59% 0.00in /  0mm
00:45 74.6 °F /  23.7 °C 59.8 °F /  15.4 °C 29.78in /  1008.4hPa SW 4.0mph /  6.4km/h 10.0mph /  16.1km/h 60% 0.00in /  0mm
00:50 74.5 °F /  23.6 °C 59.7 °F /  15.4 °C 29.78in /  1008.4hPa SW 3.0mph /  4.8km/h 8.0mph /  12.9km/h 60% 0.00in /  0mm
00:55 74.4 °F /  23.6 °C 59.6 °F /  15.3 °C 29.78in /  1008.4hPa SW 4.0mph /  6.4km/h 8.0mph /  12.9km/h 60% 0.00in /  0mm
01:00 74.3 °F /  23.5 °C 59.5 °F /  15.3 °C 29.79in /  1008.7hPa SSW 5.0mph /  8km/h 7.0mph /  11.3km/h 60% 0.00in /  0mm
01:05 74.3 °F /  23.5 °C 59.5 °F /  15.3 °C 29.79in /  1008.7hPa SSW 4.0mph /  6.4km/h 8.0mph /  12.9km/h 60% 0.00in /  0mm
01:10 74.2 °F /  23.4 °C 59.4 °F /  15.2 °C 29.79in /  1008.7hPa SW 3.0mph /  4.8km/h 7.0mph /  11.3km/h 60% 0.00in /  0mm
01:15 74.2 °F /  23.4 °C 59.4 °F /  15.2 °C 29.79in /  1008.7hPa SW 4.0mph /  6.4km/h 7.0mph /  11.3km/h 60% 0.00in /  0mm
01:20 74.4 °F /  23.6 °C 59.6 °F /  15.3 °C 29.80in /  1009hPa SW 4.0mph /  6.4km/h 10.0mph /  16.1km/h 60% 0.00in /  0mm
01:25 74.6 °F /  23.7 °C 59.3 °F /  15.2 °C 29.80in /  1009hPa SW 5.0mph /  8km/h 11.0mph /  17.7km/h 59% 0.00in /  0mm
01:30 74.7 °F /  23.7 °C 59.4 °F /  15.2 °C 29.80in /  1009hPa WSW 6.0mph /  9.7km/h 8.0mph /  12.9km/h 59% 0.00in /  0mm
01:35 74.6 °F /  23.7 °C 59.3 °F /  15.2 °C 29.80in /  1009hPa SW 4.0mph /  6.4km/h 8.0mph /  12.9km/h 59% 0.00in /  0mm
01:40 74.7 °F /  23.7 °C 58.9 °F /  14.9 °C 29.80in /  1009hPa SSW 3.0mph /  4.8km/h 12.0mph /  19.3km/h 58% 0.00in /  0mm
01:45 74.7 °F /  23.7 °C 58.9 °F /  14.9 °C 29.81in /  1009.4hPa SW 4.0mph /  6.4km/h 12.0mph /  19.3km/h 58% 0.00in /  0mm
01:50 74.8 °F /  23.8 °C 59.0 °F /  15 °C 29.81in /  1009.4hPa South 4.0mph /  6.4km/h 14.0mph /  22.5km/h 58% 0.00in /  0mm
01:55 74.9 °F /  23.8 °C 58.6 °F /  14.8 °C 29.81in /  1009.4hPa SW 5.0mph /  8km/h 14.0mph /  22.5km/h 57% 0.00in /  0mm
02:00 75.0 °F /  23.9 °C 58.7 °F /  14.8 °C 29.81in /  1009.4hPa SW 5.0mph /  8km/h 11.0mph /  17.7km/h 57% 0.00in /  0mm
02:05 75.0 °F /  23.9 °C 58.7 °F /  14.8 °C 29.81in /  1009.4hPa SW 6.0mph /  9.7km/h 11.0mph /  17.7km/h 57% 0.00in /  0mm
02:10 74.9 °F /  23.8 °C 58.6 °F /  14.8 °C 29.81in /  1009.4hPa West 5.0mph /  8km/h 10.0mph /  16.1km/h 57% 0.00in /  0mm
02:15 74.7 °F /  23.7 °C 58.5 °F /  14.7 °C 29.81in /  1009.4hPa SW 5.0mph /  8km/h 10.0mph /  16.1km/h 57% 0.00in /  0mm
02:20 74.6 °F /  23.7 °C 58.4 °F /  14.7 °C 29.82in /  1009.7hPa WSW 7.0mph /  11.3km/h 11.0mph /  17.7km/h 57% 0.00in /  0mm
02:25 74.4 °F /  23.6 °C 58.2 °F /  14.6 °C 29.82in /  1009.7hPa SW 5.0mph /  8km/h 7.0mph /  11.3km/h 57% 0.00in /  0mm
02:30 74.2 °F /  23.4 °C 58.5 °F /  14.7 °C 29.81in /  1009.4hPa SW 4.0mph /  6.4km/h 10.0mph /  16.1km/h 58% 0.00in /  0mm
02:35 74.0 °F /  23.3 °C 58.3 °F /  14.6 °C 29.81in /  1009.4hPa SW 1.0mph /  1.6km/h 7.0mph /  11.3km/h 58% 0.00in /  0mm
02:40 73.9 °F /  23.3 °C 58.2 °F /  14.6 °C 29.81in /  1009.4hPa SW 2.0mph /  3.2km/h 7.0mph /  11.3km/h 58% 0.00in /  0mm
02:45 73.7 °F /  23.2 °C 58.5 °F /  14.7 °C 29.81in /  1009.4hPa SW 3.0mph /  4.8km/h 7.0mph /  11.3km/h 59% 0.00in /  0mm
02:50 73.7 °F /  23.2 °C 58.5 °F /  14.7 °C 29.81in /  1009.4hPa SW 4.0mph /  6.4km/h 9.0mph /  14.5km/h 59% 0.00in /  0mm
02:55 73.7 °F /  23.2 °C 58.5 °F /  14.7 °C 29.81in /  1009.4hPa SW 5.0mph /  8km/h 9.0mph /  14.5km/h 59% 0.00in /  0mm
03:00 73.9 °F /  23.3 °C 58.2 °F /  14.6 °C 29.81in /  1009.4hPa SW 4.0mph /  6.4km/h 9.0mph /  14.5km/h 58% 0.00in /  0mm
03:05 74.0 °F /  23.3 °C 58.3 °F /  14.6 °C 29.81in /  1009.4hPa SW 4.0mph /  6.4km/h 9.0mph /  14.5km/h 58% 0.00in /  0mm
03:10 74.1 °F /  23.4 °C 58.4 °F /  14.7 °C 29.80in /  1009hPa SW 4.0mph /  6.4km/h 7.0mph /  11.3km/h 58% 0.00in /  0mm
03:15 74.2 °F /  23.4 °C 58.5 °F /  14.7 °C 29.80in /  1009hPa WSW 3.0mph /  4.8km/h 8.0mph /  12.9km/h 58% 0.00in /  0mm
03:20 74.3 °F /  23.5 °C 58.6 °F /  14.8 °C 29.80in /  1009hPa SW 6.0mph /  9.7km/h 8.0mph /  12.9km/h 58% 0.00in /  0mm
03:25 74.2 °F /  23.4 °C 58.5 °F /  14.7 °C 29.80in /  1009hPa WSW 6.0mph /  9.7km/h 11.0mph /  17.7km/h 58% 0.00in /  0mm
03:30 74.2 °F /  23.4 °C 58.5 °F /  14.7 °C 29.80in /  1009hPa SW 10.0mph /  16.1km/h 10.0mph /  16.1km/h 58% 0.00in /  0mm
03:35 74.4 °F /  23.6 °C 58.7 °F /  14.8 °C 29.80in /  1009hPa SSW 4.0mph /  6.4km/h 11.0mph /  17.7km/h 58% 0.00in /  0mm
03:40 74.3 °F /  23.5 °C 58.6 °F /  14.8 °C 29.80in /  1009hPa West 3.0mph /  4.8km/h 10.0mph /  16.1km/h 58% 0.00in /  0mm
03:45 74.1 °F /  23.4 °C 58.4 °F /  14.7 °C 29.80in /  1009hPa SW 5.0mph /  8km/h 10.0mph /  16.1km/h 58% 0.00in /  0mm
03:50 74.0 °F /  23.3 °C 58.3 °F /  14.6 °C 29.80in /  1009hPa SW 4.0mph /  6.4km/h 9.0mph /  14.5km/h 58% 0.00in /  0mm
03:55 73.8 °F /  23.2 °C 58.1 °F /  14.5 °C 29.80in /  1009hPa SW 4.0mph /  6.4km/h 9.0mph /  14.5km/h 58% 0.00in /  0mm
04:00 73.6 °F /  23.1 °C 57.9 °F /  14.4 °C 29.81in /  1009.4hPa SW 4.0mph /  6.4km/h 8.0mph /  12.9km/h 58% 0.00in /  0mm
04:05 73.7 °F /  23.2 °C 58.0 °F /  14.4 °C 29.81in /  1009.4hPa South 9.0mph /  14.5km/h 11.0mph /  17.7km/h 58% 0.00in /  0mm
04:10 73.7 °F /  23.2 °C 58.0 °F /  14.4 °C 29.81in /  1009.4hPa SW 4.0mph /  6.4km/h 11.0mph /  17.7km/h 58% 0.00in /  0mm
04:15 73.9 °F /  23.3 °C 57.7 °F /  14.3 °C 29.81in /  1009.4hPa SW 4.0mph /  6.4km/h 9.0mph /  14.5km/h 57% 0.00in /  0mm
04:20 73.8 °F /  23.2 °C 57.6 °F /  14.2 °C 29.81in /  1009.4hPa SSW 3.0mph /  4.8km/h 11.0mph /  17.7km/h 57% 0.00in /  0mm
04:25 73.9 °F /  23.3 °C 57.7 °F /  14.3 °C 29.81in /  1009.4hPa SW 8.0mph /  12.9km/h 9.0mph /  14.5km/h 57% 0.00in /  0mm
04:30 74.0 °F /  23.3 °C 57.3 °F /  14.1 °C 29.81in /  1009.4hPa WSW 2.0mph /  3.2km/h 9.0mph /  14.5km/h 56% 0.00in /  0mm
04:35 74.0 °F /  23.3 °C 57.3 °F /  14.1 °C 29.81in /  1009.4hPa SW 4.0mph /  6.4km/h 9.0mph /  14.5km/h 56% 0.00in /  0mm
04:40 74.1 °F /  23.4 °C 57.4 °F /  14.1 °C 29.81in /  1009.4hPa SW 5.0mph /  8km/h 13.0mph /  20.9km/h 56% 0.00in /  0mm
04:45 74.3 °F /  23.5 °C 57.6 °F /  14.2 °C 29.81in /  1009.4hPa SW 5.0mph /  8km/h 13.0mph /  20.9km/h 56% 0.00in /  0mm
04:50 74.4 °F /  23.6 °C 57.2 °F /  14 °C 29.81in /  1009.4hPa SSE 4.0mph /  6.4km/h 13.0mph /  20.9km/h 55% 0.00in /  0mm
04:55 74.6 °F /  23.7 °C 57.4 °F /  14.1 °C 29.81in /  1009.4hPa West 5.0mph /  8km/h 11.0mph /  17.7km/h 55% 0.00in /  0mm
05:00 74.6 °F /  23.7 °C 57.4 °F /  14.1 °C 29.81in /  1009.4hPa SW 2.0mph /  3.2km/h 9.0mph /  14.5km/h 55% 0.00in /  0mm
05:05 74.4 °F /  23.6 °C 57.2 °F /  14 °C 29.81in /  1009.4hPa SW 4.0mph /  6.4km/h 9.0mph /  14.5km/h 55% 0.00in /  0mm
05:10 74.4 °F /  23.6 °C 57.2 °F /  14 °C 29.81in /  1009.4hPa SW 4.0mph /  6.4km/h 10.0mph /  16.1km/h 55% 0.00in /  0mm
05:15 74.6 °F /  23.7 °C 57.4 °F /  14.1 °C 29.81in /  1009.4hPa SW 5.0mph /  8km/h 12.0mph /  19.3km/h 55% 0.00in /  0mm
05:20 74.7 °F /  23.7 °C 57.5 °F /  14.2 °C 29.81in /  1009.4hPa SW 4.0mph /  6.4km/h 11.0mph /  17.7km/h 55% 0.00in /  0mm
05:25 74.8 °F /  23.8 °C 57.5 °F /  14.2 °C 29.81in /  1009.4hPa South 4.0mph /  6.4km/h 10.0mph /  16.1km/h 55% 0.00in /  0mm
05:30 74.9 °F /  23.8 °C 58.1 °F /  14.5 °C 29.81in /  1009.4hPa West 4.0mph /  6.4km/h 11.0mph /  17.7km/h 56% 0.00in /  0mm
05:35 74.7 °F /  23.7 °C 58.0 °F /  14.4 °C 29.81in /  1009.4hPa SW 5.0mph /  8km/h 11.0mph /  17.7km/h 56% 0.00in /  0mm
05:40 74.7 °F /  23.7 °C 58.0 °F /  14.4 °C 29.81in /  1009.4hPa SW 5.0mph /  8km/h 12.0mph /  19.3km/h 56% 0.00in /  0mm
05:45 74.9 °F /  23.8 °C 58.1 °F /  14.5 °C 29.81in /  1009.4hPa SW 6.0mph /  9.7km/h 13.0mph /  20.9km/h 56% 0.00in /  0mm
05:50 74.8 °F /  23.8 °C 58.1 °F /  14.5 °C 29.82in /  1009.7hPa SW 5.0mph /  8km/h 10.0mph /  16.1km/h 56% 0.00in /  0mm
05:55 74.6 °F /  23.7 °C 58.4 °F /  14.7 °C 29.82in /  1009.7hPa SSW 5.0mph /  8km/h 8.0mph /  12.9km/h 57% 0.00in /  0mm
06:00 74.3 °F /  23.5 °C 58.1 °F /  14.5 °C 29.81in /  1009.4hPa SW 5.0mph /  8km/h 12.0mph /  19.3km/h 57% 0.00in /  0mm
06:05 74.3 °F /  23.5 °C 58.6 °F /  14.8 °C 29.81in /  1009.4hPa SW 5.0mph /  8km/h 12.0mph /  19.3km/h 58% 0.00in /  0mm
06:10 74.3 °F /  23.5 °C 58.6 °F /  14.8 °C 29.81in /  1009.4hPa SW 5.0mph /  8km/h 11.0mph /  17.7km/h 58% 0.00in /  0mm
06:15 74.1 °F /  23.4 °C 58.4 °F /  14.7 °C 29.81in /  1009.4hPa SSW 4.0mph /  6.4km/h 10.0mph /  16.1km/h 58% 0.00in /  0mm
06:20 74.2 °F /  23.4 °C 58.5 °F /  14.7 °C 29.81in /  1009.4hPa SSW 5.0mph /  8km/h 8.0mph /  12.9km/h 58% 0.00in /  0mm
06:25 73.9 °F /  23.3 °C 58.7 °F /  14.8 °C 29.82in /  1009.7hPa SW 4.0mph /  6.4km/h 8.0mph /  12.9km/h 59% 0.00in /  0mm
06:30 73.8 °F /  23.2 °C 58.6 °F /  14.8 °C 29.82in /  1009.7hPa SW 3.0mph /  4.8km/h 7.0mph /  11.3km/h 59% 0.00in /  0mm
06:35 73.7 °F /  23.2 °C 58.9 °F /  14.9 °C 29.82in /  1009.7hPa SW 3.0mph /  4.8km/h 8.0mph /  12.9km/h 60% 0.00in /  0mm
06:40 74.0 °F /  23.3 °C 59.2 °F /  15.1 °C 29.82in /  1009.7hPa South 1.0mph /  1.6km/h 5.0mph /  8km/h 60% 0.00in /  0mm
06:45 74.1 °F /  23.4 °C 58.9 °F /  14.9 °C 29.82in /  1009.7hPa SSW 3.0mph /  4.8km/h 7.0mph /  11.3km/h 59% 0.00in /  0mm
06:50 74.2 °F /  23.4 °C 58.9 °F /  14.9 °C 29.82in /  1009.7hPa SSE 2.0mph /  3.2km/h 7.0mph /  11.3km/h 59% 0.00in /  0mm
06:55 74.3 °F /  23.5 °C 59.5 °F /  15.3 °C 29.82in /  1009.7hPa SSW 5.0mph /  8km/h 7.0mph /  11.3km/h 60% 0.00in /  0mm
07:00 74.7 °F /  23.7 °C 59.4 °F /  15.2 °C 29.82in /  1009.7hPa SW 2.0mph /  3.2km/h 9.0mph /  14.5km/h 59% 0.00in /  0mm
07:05 74.8 °F /  23.8 °C 59.5 °F /  15.3 °C 29.82in /  1009.7hPa SW 4.0mph /  6.4km/h 9.0mph /  14.5km/h 59% 0.00in /  0mm
07:10 75.1 °F /  23.9 °C 59.3 °F /  15.2 °C 29.82in /  1009.7hPa SW 4.0mph /  6.4km/h 10.0mph /  16.1km/h 58% 0.00in /  0mm
07:15 75.1 °F /  23.9 °C 59.8 °F /  15.4 °C 29.81in /  1009.4hPa SW 5.0mph /  8km/h 11.0mph /  17.7km/h 59% 0.00in /  0mm
07:20 75.0 °F /  23.9 °C 59.7 °F /  15.4 °C 29.81in /  1009.4hPa SW 4.0mph /  6.4km/h 11.0mph /  17.7km/h 59% 0.00in /  0mm
07:25 75.1 °F /  23.9 °C 59.8 °F /  15.4 °C 29.81in /  1009.4hPa SSW 3.0mph /  4.8km/h 9.0mph /  14.5km/h 59% 0.00in /  0mm
07:30 75.3 °F /  24.1 °C 60.0 °F /  15.6 °C 29.81in /  1009.4hPa SW 8.0mph /  12.9km/h 10.0mph /  16.1km/h 59% 0.00in /  0mm
07:35 75.2 °F /  24 °C 59.9 °F /  15.5 °C 29.81in /  1009.4hPa SW 5.0mph /  8km/h 10.0mph /  16.1km/h 59% 0.00in /  0mm
07:40 75.1 °F /  23.9 °C 59.8 °F /  15.4 °C 29.80in /  1009hPa SW 11.0mph /  17.7km/h 12.0mph /  19.3km/h 59% 0.00in /  0mm
07:45 75.0 °F /  23.9 °C 59.7 °F /  15.4 °C 29.81in /  1009.4hPa SW 8.0mph /  12.9km/h 15.0mph /  24.1km/h 59% 0.00in /  0mm
07:50 75.3 °F /  24.1 °C 60.0 °F /  15.6 °C 29.80in /  1009hPa SSW 3.0mph /  4.8km/h 13.0mph /  20.9km/h 59% 0.00in /  0mm
07:55 75.6 °F /  24.2 °C 60.3 °F /  15.7 °C 29.80in /  1009hPa SW 3.0mph /  4.8km/h 15.0mph /  24.1km/h 59% 0.00in /  0mm
08:00 76.2 °F /  24.6 °C 59.9 °F /  15.5 °C 29.80in /  1009hPa SW 5.0mph /  8km/h 10.0mph /  16.1km/h 57% 0.00in /  0mm
08:05 76.8 °F /  24.9 °C 60.9 °F /  16.1 °C 29.80in /  1009hPa SW 5.0mph /  8km/h 10.0mph /  16.1km/h 58% 0.00in /  0mm
08:10 76.9 °F /  24.9 °C 60.5 °F /  15.8 °C 29.80in /  1009hPa SW 5.0mph /  8km/h 10.0mph /  16.1km/h 57% 0.00in /  0mm
08:15 76.7 °F /  24.8 °C 60.8 °F /  16 °C 29.80in /  1009hPa SSW 5.0mph /  8km/h 12.0mph /  19.3km/h 58% 0.00in /  0mm
08:20 76.6 °F /  24.8 °C 60.2 °F /  15.7 °C 29.80in /  1009hPa SW 5.0mph /  8km/h 13.0mph /  20.9km/h 57% 0.00in /  0mm
08:25 76.4 °F /  24.7 °C 60.0 °F /  15.6 °C 29.80in /  1009hPa SW 8.0mph /  12.9km/h 14.0mph /  22.5km/h 57% 0.00in /  0mm
08:30 76.3 °F /  24.6 °C 59.9 °F /  15.5 °C 29.80in /  1009hPa SSW 7.0mph /  11.3km/h 13.0mph /  20.9km/h 57% 0.00in /  0mm
08:35 76.4 °F /  24.7 °C 60.5 °F /  15.8 °C 29.79in /  1008.7hPa SW 6.0mph /  9.7km/h 13.0mph /  20.9km/h 58% 0.00in /  0mm
08:40 76.6 °F /  24.8 °C 60.2 °F /  15.7 °C 29.80in /  1009hPa SSW 6.0mph /  9.7km/h 13.0mph /  20.9km/h 57% 0.00in /  0mm
08:45 76.8 °F /  24.9 °C 60.4 °F /  15.8 °C 29.79in /  1008.7hPa SSW 6.0mph /  9.7km/h 13.0mph /  20.9km/h 57% 0.00in /  0mm
08:50 77.1 °F /  25.1 °C 61.2 °F /  16.2 °C 29.79in /  1008.7hPa SW 3.0mph /  4.8km/h 12.0mph /  19.3km/h 58% 0.00in /  0mm
08:55 77.4 °F /  25.2 °C 61.0 °F /  16.1 °C 29.79in /  1008.7hPa SW 2.0mph /  3.2km/h 12.0mph /  19.3km/h 57% 0.00in /  0mm
09:00 77.4 °F /  25.2 °C 61.0 °F /  16.1 °C 29.79in /  1008.7hPa SSW 6.0mph /  9.7km/h 17.0mph /  27.4km/h 57% 0.00in /  0mm
09:05 77.3 °F /  25.2 °C 60.4 °F /  15.8 °C 29.79in /  1008.7hPa WSW 4.0mph /  6.4km/h 12.0mph /  19.3km/h 56% 0.00in /  0mm
09:10 78.0 °F /  25.6 °C 61.0 °F /  16.1 °C 29.79in /  1008.7hPa WSW 8.0mph /  12.9km/h 17.0mph /  27.4km/h 56% 0.00in /  0mm
09:15 78.6 °F /  25.9 °C 61.1 °F /  16.2 °C 29.79in /  1008.7hPa West 5.0mph /  8km/h 14.0mph /  22.5km/h 55% 0.00in /  0mm
09:20 79.1 °F /  26.2 °C 62.1 °F /  16.7 °C 29.79in /  1008.7hPa SSW 6.0mph /  9.7km/h 18.0mph /  29km/h 56% 0.00in /  0mm
09:25 79.0 °F /  26.1 °C 60.9 °F /  16.1 °C 29.80in /  1009hPa SW 10.0mph /  16.1km/h 19.0mph /  30.6km/h 54% 0.00in /  0mm
09:30 79.0 °F /  26.1 °C 61.5 °F /  16.4 °C 29.79in /  1008.7hPa West 7.0mph /  11.3km/h 17.0mph /  27.4km/h 55% 0.00in /  0mm
09:35 79.1 °F /  26.2 °C 61.5 °F /  16.4 °C 29.80in /  1009hPa SW 8.0mph /  12.9km/h 18.0mph /  29km/h 55% 0.00in /  0mm
09:40 79.1 °F /  26.2 °C 62.1 °F /  16.7 °C 29.79in /  1008.7hPa SW 8.0mph /  12.9km/h 18.0mph /  29km/h 56% 0.00in /  0mm
09:45 79.3 °F /  26.3 °C 61.2 °F /  16.2 °C 29.79in /  1008.7hPa SW 9.0mph /  14.5km/h 18.0mph /  29km/h 54% 0.00in /  0mm
09:50 79.3 °F /  26.3 °C 61.2 °F /  16.2 °C 29.79in /  1008.7hPa SW 9.0mph /  14.5km/h 18.0mph /  29km/h 54% 0.00in /  0mm
09:55 79.2 °F /  26.2 °C 61.6 °F /  16.4 °C 29.79in /  1008.7hPa SW 9.0mph /  14.5km/h 17.0mph /  27.4km/h 55% 0.00in /  0mm
10:00 79.3 °F /  26.3 °C 61.7 °F /  16.5 °C 29.79in /  1008.7hPa SW 9.0mph /  14.5km/h 19.0mph /  30.6km/h 55% 0.00in /  0mm
10:05 79.5 °F /  26.4 °C 61.4 °F /  16.3 °C 29.79in /  1008.7hPa West 8.0mph /  12.9km/h 18.0mph /  29km/h 54% 0.00in /  0mm
10:10 79.9 °F /  26.6 °C 62.8 °F /  17.1 °C 29.79in /  1008.7hPa SW 6.0mph /  9.7km/h 16.0mph /  25.7km/h 56% 0.00in /  0mm
10:15 80.1 °F /  26.7 °C 62.5 °F /  16.9 °C 29.79in /  1008.7hPa WSW 7.0mph /  11.3km/h 19.0mph /  30.6km/h 55% 0.00in /  0mm
10:20 80.2 °F /  26.8 °C 62.0 °F /  16.7 °C 29.79in /  1008.7hPa WSW 12.0mph /  19.3km/h 18.0mph /  29km/h 54% 0.00in /  0mm
10:25 80.2 °F /  26.8 °C 61.5 °F /  16.4 °C 29.79in /  1008.7hPa West 16.0mph /  25.7km/h 19.0mph /  30.6km/h 53% 0.00in /  0mm
10:30 80.4 °F /  26.9 °C 62.2 °F /  16.8 °C 29.80in /  1009hPa WSW 11.0mph /  17.7km/h 20.0mph /  32.2km/h 54% 0.00in /  0mm
10:35 80.5 °F /  26.9 °C 62.3 °F /  16.8 °C 29.80in /  1009hPa WSW 11.0mph /  17.7km/h 23.0mph /  37km/h 54% 0.00in /  0mm
10:40 80.3 °F /  26.8 °C 62.1 °F /  16.7 °C 29.80in /  1009hPa WNW 11.0mph /  17.7km/h 23.0mph /  37km/h 54% 0.00in /  0mm
10:45 80.3 °F /  26.8 °C 62.7 °F /  17.1 °C 29.79in /  1008.7hPa WSW 11.0mph /  17.7km/h 26.0mph /  41.8km/h 55% 0.00in /  0mm
10:50 80.6 °F /  27 °C 62.4 °F /  16.9 °C 29.80in /  1009hPa WSW 18.0mph /  29km/h 20.0mph /  32.2km/h 54% 0.00in /  0mm
10:55 80.9 °F /  27.2 °C 63.2 °F /  17.3 °C 29.80in /  1009hPa SW 10.0mph /  16.1km/h 22.0mph /  35.4km/h 55% 0.00in /  0mm
11:00 80.7 °F /  27.1 °C 62.5 °F /  16.9 °C 29.79in /  1008.7hPa WSW 10.0mph /  16.1km/h 22.0mph /  35.4km/h 54% 0.00in /  0mm
11:05 80.8 °F /  27.1 °C 62.6 °F /  17 °C 29.79in /  1008.7hPa SW 10.0mph /  16.1km/h 20.0mph /  32.2km/h 54% 0.00in /  0mm
11:10 81.2 °F /  27.3 °C 63.5 °F /  17.5 °C 29.79in /  1008.7hPa SW 8.0mph /  12.9km/h 20.0mph /  32.2km/h 55% 0.00in /  0mm
11:15 81.3 °F /  27.4 °C 63.6 °F /  17.6 °C 29.79in /  1008.7hPa WSW 8.0mph /  12.9km/h 18.0mph /  29km/h 55% 0.00in /  0mm
11:20 81.3 °F /  27.4 °C 63.1 °F /  17.3 °C 29.79in /  1008.7hPa WNW 13.0mph /  20.9km/h 24.0mph /  38.6km/h 54% 0.00in /  0mm
11:25 81.3 °F /  27.4 °C 63.1 °F /  17.3 °C 29.79in /  1008.7hPa WSW 9.0mph /  14.5km/h 24.0mph /  38.6km/h 54% 0.00in /  0mm
11:30 81.3 °F /  27.4 °C 63.6 °F /  17.6 °C 29.80in /  1009hPa WSW 10.0mph /  16.1km/h 19.0mph /  30.6km/h 55% 0.00in /  0mm
11:35 81.3 °F /  27.4 °C 63.1 °F /  17.3 °C 29.79in /  1008.7hPa SW 15.0mph /  24.1km/h 18.0mph /  29km/h 54% 0.00in /  0mm
11:45 80.5 °F /  26.9 °C 62.8 °F /  17.1 °C 29.79in /  1008.7hPa WSW 14.0mph /  22.5km/h 22.0mph /  35.4km/h 55% 0.00in /  0mm
11:50 80.7 °F /  27.1 °C 63.5 °F /  17.5 °C 29.80in /  1009hPa WSW 11.0mph /  17.7km/h 24.0mph /  38.6km/h 56% 0.00in /  0mm
11:55 80.8 °F /  27.1 °C 63.6 °F /  17.6 °C 29.80in /  1009hPa WSW 13.0mph /  20.9km/h 24.0mph /  38.6km/h 56% 0.00in /  0mm
12:00 81.1 °F /  27.3 °C 63.4 °F /  17.4 °C 29.80in /  1009hPa WSW 11.0mph /  17.7km/h 22.0mph /  35.4km/h 55% 0.00in /  0mm
12:05 81.4 °F /  27.4 °C 63.2 °F /  17.3 °C 29.80in /  1009hPa WSW 10.0mph /  16.1km/h 22.0mph /  35.4km/h 54% 0.00in /  0mm
12:10 81.2 °F /  27.3 °C 63.5 °F /  17.5 °C 29.80in /  1009hPa WSW 11.0mph /  17.7km/h 23.0mph /  37km/h 55% 0.00in /  0mm
12:15 81.1 °F /  27.3 °C 63.4 °F /  17.4 °C 29.80in /  1009hPa WSW 12.0mph /  19.3km/h 23.0mph /  37km/h 55% 0.00in /  0mm
12:20 81.2 °F /  27.3 °C 63.5 °F /  17.5 °C 29.80in /  1009hPa WSW 12.0mph /  19.3km/h 23.0mph /  37km/h 55% 0.00in /  0mm
12:25 81.6 °F /  27.6 °C 64.4 °F /  18 °C 29.80in /  1009hPa WSW 6.0mph /  9.7km/h 20.0mph /  32.2km/h 56% 0.00in /  0mm
12:30 81.8 °F /  27.7 °C 63.5 °F /  17.5 °C 29.80in /  1009hPa WNW 5.0mph /  8km/h 25.0mph /  40.2km/h 54% 0.00in /  0mm
12:35 81.8 °F /  27.7 °C 64.1 °F /  17.8 °C 29.80in /  1009hPa West 11.0mph /  17.7km/h 22.0mph /  35.4km/h 55% 0.00in /  0mm
12:40 81.4 °F /  27.4 °C 63.2 °F /  17.3 °C 29.80in /  1009hPa West 10.0mph /  16.1km/h 19.0mph /  30.6km/h 54% 0.00in /  0mm
12:45 81.1 °F /  27.3 °C 63.4 °F /  17.4 °C 29.80in /  1009hPa WNW 15.0mph /  24.1km/h 22.0mph /  35.4km/h 55% 0.00in /  0mm
12:50 80.7 °F /  27.1 °C 63.0 °F /  17.2 °C 29.79in /  1008.7hPa West 8.0mph /  12.9km/h 20.0mph /  32.2km/h 55% 0.00in /  0mm
12:55 80.4 °F /  26.9 °C 63.8 °F /  17.7 °C 29.79in /  1008.7hPa WSW 11.0mph /  17.7km/h 24.0mph /  38.6km/h 57% 0.00in /  0mm
13:00 80.6 °F /  27 °C 64.0 °F /  17.8 °C 29.79in /  1008.7hPa WSW 11.0mph /  17.7km/h 24.0mph /  38.6km/h 57% 0.00in /  0mm
13:05 80.4 °F /  26.9 °C 63.8 °F /  17.7 °C 29.79in /  1008.7hPa WSW 10.0mph /  16.1km/h 22.0mph /  35.4km/h 57% 0.00in /  0mm
13:10 80.8 °F /  27.1 °C 64.6 °F /  18.1 °C 29.79in /  1008.7hPa West 8.0mph /  12.9km/h 24.0mph /  38.6km/h 58% 0.00in /  0mm
13:15 81.4 °F /  27.4 °C 63.7 °F /  17.6 °C 29.78in /  1008.4hPa NW 15.0mph /  24.1km/h 20.0mph /  32.2km/h 55% 0.00in /  0mm
13:20 81.6 °F /  27.6 °C 63.9 °F /  17.7 °C 29.78in /  1008.4hPa West 11.0mph /  17.7km/h 26.0mph /  41.8km/h 55% 0.00in /  0mm
13:25 81.6 °F /  27.6 °C 64.4 °F /  18 °C 29.78in /  1008.4hPa WSW 11.0mph /  17.7km/h 26.0mph /  41.8km/h 56% 0.00in /  0mm
13:30 82.3 °F /  27.9 °C 65.0 °F /  18.3 °C 29.78in /  1008.4hPa WSW 10.0mph /  16.1km/h 20.0mph /  32.2km/h 56% 0.00in /  0mm
13:35 82.1 °F /  27.8 °C 63.8 °F /  17.7 °C 29.78in /  1008.4hPa WSW 10.0mph /  16.1km/h 28.0mph /  45.1km/h 54% 0.00in /  0mm
13:40 82.3 °F /  27.9 °C 64.5 °F /  18.1 °C 29.77in /  1008hPa WNW 13.0mph /  20.9km/h 21.0mph /  33.8km/h 55% 0.00in /  0mm
13:45 82.2 °F /  27.9 °C 64.4 °F /  18 °C 29.77in /  1008hPa SW 11.0mph /  17.7km/h 17.0mph /  27.4km/h 55% 0.00in /  0mm
13:50 82.3 °F /  27.9 °C 64.5 °F /  18.1 °C 29.77in /  1008hPa West 18.0mph /  29km/h 18.0mph /  29km/h 55% 0.00in /  0mm
13:55 82.2 °F /  27.9 °C 63.4 °F /  17.4 °C 29.76in /  1007.7hPa WSW 11.0mph /  17.7km/h 25.0mph /  40.2km/h 53% 0.00in /  0mm
14:00 82.0 °F /  27.8 °C 64.2 °F /  17.9 °C 29.76in /  1007.7hPa West 9.0mph /  14.5km/h 25.0mph /  40.2km/h 55% 0.00in /  0mm
14:05 82.0 °F /  27.8 °C 63.7 °F /  17.6 °C 29.76in /  1007.7hPa WSW 9.0mph /  14.5km/h 24.0mph /  38.6km/h 54% 0.00in /  0mm
14:10 82.9 °F /  28.3 °C 64.0 °F /  17.8 °C 29.76in /  1007.7hPa West 12.0mph /  19.3km/h 23.0mph /  37km/h 53% 0.00in /  0mm
14:15 83.2 °F /  28.4 °C 63.7 °F /  17.6 °C 29.76in /  1007.7hPa SW 5.0mph /  8km/h 16.0mph /  25.7km/h 52% 0.00in /  0mm
14:20 82.7 °F /  28.2 °C 64.4 °F /  18 °C 29.76in /  1007.7hPa WSW 9.0mph /  14.5km/h 20.0mph /  32.2km/h 54% 0.00in /  0mm
14:25 82.3 °F /  27.9 °C 64.0 °F /  17.8 °C 29.75in /  1007.3hPa WSW 9.0mph /  14.5km/h 22.0mph /  35.4km/h 54% 0.00in /  0mm
14:30 81.9 °F /  27.7 °C 64.1 °F /  17.8 °C 29.76in /  1007.7hPa WSW 10.0mph /  16.1km/h 22.0mph /  35.4km/h 55% 0.00in /  0mm
14:35 82.1 °F /  27.8 °C 63.8 °F /  17.7 °C 29.75in /  1007.3hPa WSW 8.0mph /  12.9km/h 17.0mph /  27.4km/h 54% 0.00in /  0mm
14:40 82.0 °F /  27.8 °C 64.2 °F /  17.9 °C 29.75in /  1007.3hPa WSW 8.0mph /  12.9km/h 17.0mph /  27.4km/h 55% 0.00in /  0mm
14:45 81.6 °F /  27.6 °C 65.4 °F /  18.6 °C 29.75in /  1007.3hPa SW 10.0mph /  16.1km/h 18.0mph /  29km/h 58% 0.00in /  0mm
14:50 80.9 °F /  27.2 °C 63.7 °F /  17.6 °C 29.76in /  1007.7hPa WSW 10.0mph /  16.1km/h 23.0mph /  37km/h 56% 0.00in /  0mm
14:55 78.7 °F /  25.9 °C 62.2 °F /  16.8 °C 29.77in /  1008hPa WSW 16.0mph /  25.7km/h 16.0mph /  25.7km/h 57% 0.00in /  0mm
15:00 76.2 °F /  24.6 °C 61.8 °F /  16.6 °C 29.77in /  1008hPa WSW 7.0mph /  11.3km/h 17.0mph /  27.4km/h 61% 0.00in /  0mm
15:05 75.1 °F /  23.9 °C 61.2 °F /  16.2 °C 29.76in /  1007.7hPa WSW 11.0mph /  17.7km/h 20.0mph /  32.2km/h 62% 0.00in /  0mm
15:10 74.9 °F /  23.8 °C 61.5 °F /  16.4 °C 29.76in /  1007.7hPa SW 7.0mph /  11.3km/h 18.0mph /  29km/h 63% 0.00in /  0mm
15:15 75.7 °F /  24.3 °C 62.2 °F /  16.8 °C 29.75in /  1007.3hPa SW 9.0mph /  14.5km/h 12.0mph /  19.3km/h 63% 0.00in /  0mm
15:20 76.3 °F /  24.6 °C 61.9 °F /  16.6 °C 29.75in /  1007.3hPa WSW 7.0mph /  11.3km/h 17.0mph /  27.4km/h 61% 0.00in /  0mm
15:25 76.7 °F /  24.8 °C 62.7 °F /  17.1 °C 29.75in /  1007.3hPa WSW 8.0mph /  12.9km/h 17.0mph /  27.4km/h 62% 0.00in /  0mm
15:30 76.9 °F /  24.9 °C 62.4 °F /  16.9 °C 29.75in /  1007.3hPa WSW 8.0mph /  12.9km/h 15.0mph /  24.1km/h 61% 0.00in /  0mm
15:35 76.0 °F /  24.4 °C 62.0 °F /  16.7 °C 29.75in /  1007.3hPa WSW 8.0mph /  12.9km/h 16.0mph /  25.7km/h 62% 0.00in /  0mm
15:40 75.8 °F /  24.3 °C 62.3 °F /  16.8 °C 29.75in /  1007.3hPa NW 7.0mph /  11.3km/h 17.0mph /  27.4km/h 63% 0.00in /  0mm
15:45 76.1 °F /  24.5 °C 61.7 °F /  16.5 °C 29.75in /  1007.3hPa South 7.0mph /  11.3km/h 15.0mph /  24.1km/h 61% 0.00in /  0mm
15:50 76.8 °F /  24.9 °C 62.3 °F /  16.8 °C 29.75in /  1007.3hPa WSW 8.0mph /  12.9km/h 15.0mph /  24.1km/h 61% 0.00in /  0mm
15:55 77.3 °F /  25.2 °C 62.3 °F /  16.8 °C 29.75in /  1007.3hPa WSW 7.0mph /  11.3km/h 14.0mph /  22.5km/h 60% 0.00in /  0mm
16:00 78.2 °F /  25.7 °C 62.2 °F /  16.8 °C 29.74in /  1007hPa West 9.0mph /  14.5km/h 17.0mph /  27.4km/h 58% 0.00in /  0mm
16:05 78.4 °F /  25.8 °C 62.4 °F /  16.9 °C 29.74in /  1007hPa WSW 10.0mph /  16.1km/h 18.0mph /  29km/h 58% 0.00in /  0mm
16:10 79.1 °F /  26.2 °C 62.1 °F /  16.7 °C 29.74in /  1007hPa WSW 9.0mph /  14.5km/h 20.0mph /  32.2km/h 56% 0.00in /  0mm
16:15 79.7 °F /  26.5 °C 62.6 °F /  17 °C 29.74in /  1007hPa West 7.0mph /  11.3km/h 16.0mph /  25.7km/h 56% 0.00in /  0mm
16:20 79.8 °F /  26.6 °C 62.2 °F /  16.8 °C 29.74in /  1007hPa West 5.0mph /  8km/h 22.0mph /  35.4km/h 55% 0.00in /  0mm
16:25 79.6 °F /  26.4 °C 62.5 °F /  16.9 °C 29.74in /  1007hPa SW 8.0mph /  12.9km/h 16.0mph /  25.7km/h 56% 0.00in /  0mm
16:30 79.2 °F /  26.2 °C 62.7 °F /  17.1 °C 29.74in /  1007hPa WSW 10.0mph /  16.1km/h 15.0mph /  24.1km/h 57% 0.00in /  0mm
16:35 78.8 °F /  26 °C 62.8 °F /  17.1 °C 29.75in /  1007.3hPa South 7.0mph /  11.3km/h 16.0mph /  25.7km/h 58% 0.00in /  0mm
16:40 77.2 °F /  25.1 °C 61.3 °F /  16.3 °C 29.75in /  1007.3hPa South 5.0mph /  8km/h 14.0mph /  22.5km/h 58% 0.00in /  0mm
16:45 76.0 °F /  24.4 °C 61.1 °F /  16.2 °C 29.75in /  1007.3hPa SW 8.0mph /  12.9km/h 19.0mph /  30.6km/h 60% 0.00in /  0mm
16:50 75.7 °F /  24.3 °C 61.3 °F /  16.3 °C 29.75in /  1007.3hPa WSW 8.0mph /  12.9km/h 19.0mph /  30.6km/h 61% 0.00in /  0mm
16:55 75.6 °F /  24.2 °C 60.3 °F /  15.7 °C 29.75in /  1007.3hPa WSW 8.0mph /  12.9km/h 18.0mph /  29km/h 59% 0.00in /  0mm
17:00 76.1 °F /  24.5 °C 61.2 °F /  16.2 °C 29.75in /  1007.3hPa WSW 8.0mph /  12.9km/h 18.0mph /  29km/h 60% 0.00in /  0mm
17:15 76.5 °F /  24.7 °C 60.6 °F /  15.9 °C 29.74in /  1007hPa WSW 8.0mph /  12.9km/h 19.0mph /  30.6km/h 58% 0.00in /  0mm
17:20 76.7 °F /  24.8 °C 60.3 °F /  15.7 °C 29.74in /  1007hPa WSW 8.0mph /  12.9km/h 19.0mph /  30.6km/h 57% 0.00in /  0mm
17:25 76.6 °F /  24.8 °C 60.2 °F /  15.7 °C 29.74in /  1007hPa WNW 9.0mph /  14.5km/h 16.0mph /  25.7km/h 57% 0.00in /  0mm
17:30 76.6 °F /  24.8 °C 60.2 °F /  15.7 °C 29.74in /  1007hPa SW 10.0mph /  16.1km/h 18.0mph /  29km/h 57% 0.00in /  0mm
17:35 76.2 °F /  24.6 °C 60.3 °F /  15.7 °C 29.74in /  1007hPa SSW 7.0mph /  11.3km/h 17.0mph /  27.4km/h 58% 0.00in /  0mm
17:40 76.2 °F /  24.6 °C 60.8 °F /  16 °C 29.73in /  1006.7hPa South 8.0mph /  12.9km/h 19.0mph /  30.6km/h 59% 0.00in /  0mm
17:45 76.1 °F /  24.5 °C 60.2 °F /  15.7 °C 29.73in /  1006.7hPa WSW 9.0mph /  14.5km/h 19.0mph /  30.6km/h 58% 0.00in /  0mm
17:50 75.9 °F /  24.4 °C 60.1 °F /  15.6 °C 29.73in /  1006.7hPa WSW 9.0mph /  14.5km/h 18.0mph /  29km/h 58% 0.00in /  0mm
17:55 75.4 °F /  24.1 °C 60.1 °F /  15.6 °C 29.73in /  1006.7hPa WSW 9.0mph /  14.5km/h 19.0mph /  30.6km/h 59% 0.00in /  0mm
18:00 75.0 °F /  23.9 °C 59.7 °F /  15.4 °C 29.73in /  1006.7hPa West 5.0mph /  8km/h 14.0mph /  22.5km/h 59% 0.00in /  0mm
18:05 74.9 °F /  23.8 °C 59.6 °F /  15.3 °C 29.73in /  1006.7hPa WSW 10.0mph /  16.1km/h 24.0mph /  38.6km/h 59% 0.00in /  0mm
18:10 74.7 °F /  23.7 °C 59.4 °F /  15.2 °C 29.73in /  1006.7hPa WSW 10.0mph /  16.1km/h 24.0mph /  38.6km/h 59% 0.00in /  0mm
18:15 74.4 °F /  23.6 °C 59.6 °F /  15.3 °C 29.73in /  1006.7hPa WSW 10.0mph /  16.1km/h 20.0mph /  32.2km/h 60% 0.00in /  0mm
18:20 74.3 °F /  23.5 °C 59.0 °F /  15 °C 29.73in /  1006.7hPa WSW 6.0mph /  9.7km/h 24.0mph /  38.6km/h 59% 0.00in /  0mm
18:25 74.2 °F /  23.4 °C 59.4 °F /  15.2 °C 29.73in /  1006.7hPa WSW 10.0mph /  16.1km/h 17.0mph /  27.4km/h 60% 0.00in /  0mm
18:30 74.0 °F /  23.3 °C 59.2 °F /  15.1 °C 29.72in /  1006.3hPa SW 6.0mph /  9.7km/h 16.0mph /  25.7km/h 60% 0.00in /  0mm
18:35 73.9 °F /  23.3 °C 59.6 °F /  15.3 °C 29.72in /  1006.3hPa NW 10.0mph /  16.1km/h 18.0mph /  29km/h 61% 0.00in /  0mm
18:40 73.9 °F /  23.3 °C 59.1 °F /  15.1 °C 29.72in /  1006.3hPa WSW 8.0mph /  12.9km/h 18.0mph /  29km/h 60% 0.00in /  0mm
18:45 73.9 °F /  23.3 °C 59.1 °F /  15.1 °C 29.72in /  1006.3hPa WSW 7.0mph /  11.3km/h 15.0mph /  24.1km/h 60% 0.00in /  0mm
18:50 74.0 °F /  23.3 °C 59.2 °F /  15.1 °C 29.72in /  1006.3hPa WSW 7.0mph /  11.3km/h 15.0mph /  24.1km/h 60% 0.00in /  0mm
18:55 74.1 °F /  23.4 °C 59.3 °F /  15.2 °C 29.73in /  1006.7hPa WSW 6.0mph /  9.7km/h 14.0mph /  22.5km/h 60% 0.00in /  0mm
19:00 73.9 °F /  23.3 °C 59.1 °F /  15.1 °C 29.73in /  1006.7hPa SSW 2.0mph /  3.2km/h 10.0mph /  16.1km/h 60% 0.00in /  0mm
19:05 73.6 °F /  23.1 °C 58.9 °F /  14.9 °C 29.73in /  1006.7hPa SSW 10.0mph /  16.1km/h 14.0mph /  22.5km/h 60% 0.00in /  0mm
19:10 73.1 °F /  22.8 °C 58.8 °F /  14.9 °C 29.73in /  1006.7hPa West 5.0mph /  8km/h 17.0mph /  27.4km/h 61% 0.00in /  0mm
19:15 72.8 °F /  22.7 °C 58.1 °F /  14.5 °C 29.73in /  1006.7hPa SW 7.0mph /  11.3km/h 17.0mph /  27.4km/h 60% 0.00in /  0mm
19:20 72.5 °F /  22.5 °C 58.3 °F /  14.6 °C 29.73in /  1006.7hPa SW 7.0mph /  11.3km/h 15.0mph /  24.1km/h 61% 0.00in /  0mm
19:25 72.4 °F /  22.4 °C 58.2 °F /  14.6 °C 29.73in /  1006.7hPa SW 10.0mph /  16.1km/h 19.0mph /  30.6km/h 61% 0.00in /  0mm
19:30 72.4 °F /  22.4 °C 58.2 °F /  14.6 °C 29.73in /  1006.7hPa SSW 8.0mph /  12.9km/h 17.0mph /  27.4km/h 61% 0.00in /  0mm
19:35 72.6 °F /  22.6 °C 58.4 °F /  14.7 °C 29.73in /  1006.7hPa SW 6.0mph /  9.7km/h 17.0mph /  27.4km/h 61% 0.00in /  0mm
19:40 72.7 °F /  22.6 °C 58.5 °F /  14.7 °C 29.73in /  1006.7hPa WSW 10.0mph /  16.1km/h 17.0mph /  27.4km/h 61% 0.00in /  0mm
19:45 72.8 °F /  22.7 °C 58.6 °F /  14.8 °C 29.73in /  1006.7hPa SW 9.0mph /  14.5km/h 17.0mph /  27.4km/h 61% 0.00in /  0mm
19:50 72.7 °F /  22.6 °C 58.5 °F /  14.7 °C 29.73in /  1006.7hPa SW 8.0mph /  12.9km/h 17.0mph /  27.4km/h 61% 0.00in /  0mm
19:55 72.4 °F /  22.4 °C 58.2 °F /  14.6 °C 29.73in /  1006.7hPa SW 7.0mph /  11.3km/h 17.0mph /  27.4km/h 61% 0.00in /  0mm
20:00 72.0 °F /  22.2 °C 58.3 °F /  14.6 °C 29.74in /  1007hPa SW 9.0mph /  14.5km/h 13.0mph /  20.9km/h 62% 0.00in /  0mm
20:05 71.5 °F /  21.9 °C 57.8 °F /  14.3 °C 29.74in /  1007hPa SW 4.0mph /  6.4km/h 14.0mph /  22.5km/h 62% 0.00in /  0mm
20:10 71.0 °F /  21.7 °C 57.8 °F /  14.3 °C 29.74in /  1007hPa WSW 5.0mph /  8km/h 12.0mph /  19.3km/h 63% 0.00in /  0mm
20:15 70.8 °F /  21.6 °C 58.0 °F /  14.4 °C 29.74in /  1007hPa WSW 6.0mph /  9.7km/h 12.0mph /  19.3km/h 64% 0.00in /  0mm
20:20 70.9 °F /  21.6 °C 58.1 °F /  14.5 °C 29.73in /  1006.7hPa SW 6.0mph /  9.7km/h 13.0mph /  20.9km/h 64% 0.00in /  0mm
20:25 71.0 °F /  21.7 °C 58.2 °F /  14.6 °C 29.73in /  1006.7hPa SW 7.0mph /  11.3km/h 13.0mph /  20.9km/h 64% 0.00in /  0mm
20:30 71.3 °F /  21.8 °C 58.1 °F /  14.5 °C 29.73in /  1006.7hPa SSE 8.0mph /  12.9km/h 14.0mph /  22.5km/h 63% 0.00in /  0mm
20:35 71.7 °F /  22.1 °C 58.0 °F /  14.4 °C 29.73in /  1006.7hPa WSW 9.0mph /  14.5km/h 16.0mph /  25.7km/h 62% 0.00in /  0mm
20:40 71.8 °F /  22.1 °C 58.1 °F /  14.5 °C 29.73in /  1006.7hPa SW 8.0mph /  12.9km/h 16.0mph /  25.7km/h 62% 0.00in /  0mm
20:45 71.6 °F /  22 °C 57.9 °F /  14.4 °C 29.73in /  1006.7hPa SW 7.0mph /  11.3km/h 16.0mph /  25.7km/h 62% 0.00in /  0mm
20:50 71.4 °F /  21.9 °C 57.7 °F /  14.3 °C 29.73in /  1006.7hPa SW 3.0mph /  4.8km/h 11.0mph /  17.7km/h 62% 0.00in /  0mm
20:55 71.3 °F /  21.8 °C 57.6 °F /  14.2 °C 29.73in /  1006.7hPa SSW 4.0mph /  6.4km/h 11.0mph /  17.7km/h 62% 0.00in /  0mm
21:00 71.2 °F /  21.8 °C 58.0 °F /  14.4 °C 29.73in /  1006.7hPa SW 4.0mph /  6.4km/h 10.0mph /  16.1km/h 63% 0.00in /  0mm
21:05 71.1 °F /  21.7 °C 57.4 °F /  14.1 °C 29.73in /  1006.7hPa SSW 4.0mph /  6.4km/h 11.0mph /  17.7km/h 62% 0.00in /  0mm
21:10 71.1 °F /  21.7 °C 57.9 °F /  14.4 °C 29.73in /  1006.7hPa SW 5.0mph /  8km/h 11.0mph /  17.7km/h 63% 0.00in /  0mm
21:15 70.9 °F /  21.6 °C 57.7 °F /  14.3 °C 29.74in /  1007hPa SW 5.0mph /  8km/h 11.0mph /  17.7km/h 63% 0.00in /  0mm
21:20 70.9 °F /  21.6 °C 57.7 °F /  14.3 °C 29.74in /  1007hPa SW 5.0mph /  8km/h 11.0mph /  17.7km/h 63% 0.00in /  0mm
21:25 70.9 °F /  21.6 °C 58.1 °F /  14.5 °C 29.74in /  1007hPa SW 5.0mph /  8km/h 10.0mph /  16.1km/h 64% 0.00in /  0mm
21:30 70.7 °F /  21.5 °C 57.5 °F /  14.2 °C 29.74in /  1007hPa SW 3.0mph /  4.8km/h 12.0mph /  19.3km/h 63% 0.00in /  0mm
21:35 70.3 °F /  21.3 °C 57.1 °F /  13.9 °C 29.75in /  1007.3hPa SW 6.0mph /  9.7km/h 12.0mph /  19.3km/h 63% 0.00in /  0mm
21:40 69.9 °F /  21.1 °C 56.7 °F /  13.7 °C 29.75in /  1007.3hPa SW 5.0mph /  8km/h 12.0mph /  19.3km/h 63% 0.00in /  0mm
21:45 69.7 °F /  20.9 °C 57.0 °F /  13.9 °C 29.75in /  1007.3hPa SW 6.0mph /  9.7km/h 12.0mph /  19.3km/h 64% 0.00in /  0mm
21:50 69.4 °F /  20.8 °C 56.7 °F /  13.7 °C 29.75in /  1007.3hPa West 10.0mph /  16.1km/h 14.0mph /  22.5km/h 64% 0.00in /  0mm
21:55 69.4 °F /  20.8 °C 56.7 °F /  13.7 °C 29.75in /  1007.3hPa WSW 7.0mph /  11.3km/h 17.0mph /  27.4km/h 64% 0.00in /  0mm
22:00 69.5 °F /  20.8 °C 56.3 °F /  13.5 °C 29.75in /  1007.3hPa WNW 6.0mph /  9.7km/h 20.0mph /  32.2km/h 63% 0.00in /  0mm
22:05 69.4 °F /  20.8 °C 56.3 °F /  13.5 °C 29.75in /  1007.3hPa WSW 8.0mph /  12.9km/h 20.0mph /  32.2km/h 63% 0.00in /  0mm
22:10 69.4 °F /  20.8 °C 56.3 °F /  13.5 °C 29.75in /  1007.3hPa WSW 7.0mph /  11.3km/h 15.0mph /  24.1km/h 63% 0.00in /  0mm
22:15 69.6 °F /  20.9 °C 56.4 °F /  13.6 °C 29.76in /  1007.7hPa West 9.0mph /  14.5km/h 16.0mph /  25.7km/h 63% 0.00in /  0mm
22:20 69.8 °F /  21 °C 56.2 °F /  13.4 °C 29.78in /  1008.4hPa WNW 10.0mph /  16.1km/h 16.0mph /  25.7km/h 62% 0.00in /  0mm
22:25 69.9 °F /  21.1 °C 56.3 °F /  13.5 °C 29.78in /  1008.4hPa WNW 4.0mph /  6.4km/h 14.0mph /  22.5km/h 62% 0.00in /  0mm
22:30 70.4 °F /  21.3 °C 56.3 °F /  13.5 °C 29.78in /  1008.4hPa WNW 6.0mph /  9.7km/h 14.0mph /  22.5km/h 61% 0.00in /  0mm
22:35 71.4 °F /  21.9 °C 56.3 °F /  13.5 °C 29.78in /  1008.4hPa West 7.0mph /  11.3km/h 22.0mph /  35.4km/h 59% 0.00in /  0mm
22:40 72.1 °F /  22.3 °C 56.5 °F /  13.6 °C 29.78in /  1008.4hPa West 8.0mph /  12.9km/h 22.0mph /  35.4km/h 58% 0.00in /  0mm
22:45 73.0 °F /  22.8 °C 56.9 °F /  13.8 °C 29.79in /  1008.7hPa WSW 8.0mph /  12.9km/h 16.0mph /  25.7km/h 57% 0.00in /  0mm
22:50 73.5 °F /  23.1 °C 56.8 °F /  13.8 °C 29.79in /  1008.7hPa WSW 7.0mph /  11.3km/h 22.0mph /  35.4km/h 56% 0.00in /  0mm
22:55 74.2 °F /  23.4 °C 57.5 °F /  14.2 °C 29.80in /  1009hPa West 8.0mph /  12.9km/h 23.0mph /  37km/h 56% 0.00in /  0mm
23:00 74.3 °F /  23.5 °C 57.6 °F /  14.2 °C 29.80in /  1009hPa North 6.0mph /  9.7km/h 18.0mph /  29km/h 56% 0.00in /  0mm
23:05 74.0 °F /  23.3 °C 57.8 °F /  14.3 °C 29.79in /  1008.7hPa West 3.0mph /  4.8km/h 18.0mph /  29km/h 57% 0.00in /  0mm
23:10 73.9 °F /  23.3 °C 58.2 °F /  14.6 °C 29.79in /  1008.7hPa NW 5.0mph /  8km/h 16.0mph /  25.7km/h 58% 0.00in /  0mm
23:15 73.7 °F /  23.2 °C 58.5 °F /  14.7 °C 29.79in /  1008.7hPa West 8.0mph /  12.9km/h 16.0mph /  25.7km/h 59% 0.00in /  0mm
23:20 73.4 °F /  23 °C 58.7 °F /  14.8 °C 29.80in /  1009hPa WSW 3.0mph /  4.8km/h 12.0mph /  19.3km/h 60% 0.00in /  0mm
23:25 73.2 °F /  22.9 °C 58.9 °F /  14.9 °C 29.80in /  1009hPa West 4.0mph /  6.4km/h 14.0mph /  22.5km/h 61% 0.00in /  0mm
23:30 72.8 °F /  22.7 °C 59.0 °F /  15 °C 29.80in /  1009hPa West 5.0mph /  8km/h 14.0mph /  22.5km/h 62% 0.00in /  0mm
23:35 72.3 °F /  22.4 °C 58.5 °F /  14.7 °C 29.80in /  1009hPa West 5.0mph /  8km/h 12.0mph /  19.3km/h 62% 0.00in /  0mm
23:40 71.8 °F /  22.1 °C 58.5 °F /  14.7 °C 29.80in /  1009hPa WSW 5.0mph /  8km/h 12.0mph /  19.3km/h 63% 0.00in /  0mm
23:45 71.2 °F /  21.8 °C 58.4 °F /  14.7 °C 29.80in /  1009hPa WSW 4.0mph /  6.4km/h 9.0mph /  14.5km/h 64% 0.00in /  0mm
23:50 70.7 °F /  21.5 °C 58.4 °F /  14.7 °C 29.79in /  1008.7hPa WSW 2.0mph /  3.2km/h 9.0mph /  14.5km/h 65% 0.00in /  0mm
23:55 70.4 °F /  21.3 °C 58.5 °F /  14.7 °C 29.79in /  1008.7hPa West 7.0mph /  11.3km/h 11.0mph /  17.7km/h 66% 0.00in /  0mm
Buffalo, New York, USA
Compliments of Weather Underground - 2.5 mb